Aérodrome :
LOGIN :

S'inscrire | Disclaimer

   EN    FR    IT 

 










Légende :    VFR   VFR Marginal   IFR   IFR Intensif   IFR Très Intensif
Visi : 
Plafond : 
>= 8 km
>= 3000ft
5 à 8 km
1000 à 3000 ft
1500m à 5 km
500 à 1000 ft
800 à 1500m
200 à 500 ft
< 800m
< 200 ft
Symboles :   Orages  Brouillard  Fortes neiges  Fortes précipitations  Vent > 20 kt
SIGMETs :   Divers  Orages  Givrage  Turbulence  Onde Orograph.  Cendres Volcan.







- Altitude de l'aérodrome : 83 ft
- Code IATA : LHR
- Voir les cartes d'approche


EGLL - London Heathrow

METARs EXPIRÉS :
  • 241420Z AUTO 26013KT 9999 SCT025 BKN040 23/15 Q1013 NOSIG
  • 241350Z AUTO 24013G23KT 9999 -RA SCT020 BKN026 22/15 Q1013
  • 241320Z AUTO 25012KT 190V270 9999 BKN023 OVC041 22/15 Q1013
  • 241250Z AUTO 25011KT 9999 BKN024 OVC037 22/15 Q1013
  • 241220Z AUTO 25013KT 9999 BKN023 OVC039 22/15 Q1014 NOSIG
  • 241150Z AUTO 24014KT 9999 BKN023 22/15 Q1014

TAF TAF EGLL
Valide du 24 à 12h jusqu'au 25 à 18h UTC


241058Z 2412/2518 25012KT 9999 BKN025
PROB30
TEMPO 2412/2421 8000 -SHRA
PROB40
TEMPO 2507/2511 6000 -RADZ BKN014
PROB30
TEMPO 2512/2516 25015G25KT
Pas de NOTAMs connus pour ce terrain.



MET'MAP, la Météo Aéronautique d'un coup d'oeil ! - Copyright ORBIFLY Décembre 2007 - Disclaimer

ORBIFLY MET'MAP TEAM :

Programmation & Développement : Alexandra Zaïnal
Conception & Développement : Baudouin d'Aumeries
Co-Programmation & Développement : Marc-Olivier Méhu
Soutien technique & logistique : Manuel Goepfert

Contact : metmap@orbifly.com




SOURCES & CREDITS :

   NOAA